Startpagina
METAR-TAF:

METAR-TAF

Vliegvelden :

Calgary International Airport

Calgary, Alberta, Canada

breedte: 51-07N, lengte: 114-01W, hoogte: 1077 m

Actueel weer

Dit bericht is 55 minuten geleden gemaakt, om 09:00 UTC
Weinig wind
Temperatuur -2°C
Vochtigheid 74%
Druk 1022 hPa
Zicht: 24.1 km
Onbewolkt

METAR: CYYC 220900Z 00000KT 15SM SKC M02/M06 A3018 RMK SLP257

Tijdstip: 03:55 (09:55 UTC)

Verwachting

Dit bericht is 1 uur en het 17 minuten geleden gemaakt, om 08:38 UTC
Verwachting geldig van 22 om 09 UTC tot 23 om 06 UTC
Wind 3 kt uit variabele richting
Zicht: 10 km
Onbewolkt
Wijzigt naar
van 22 om 10 UTC tot 22 om 12 UTC
Wind 8 kt uit het zuidzuidoosten
Wijzigt naar
van 23 om 03 UTC tot 23 om 05 UTC
Wind 3 kt uit variabele richting

TAF: CYYC 220838Z 2209/2306 VRB03KT P6SM SKC BECMG 2210/2212 16008KT BECMG 2303/2305 VRB03KT RMK NXT FCST BY 221200Z

Waarnemingen en weersverwachtingen van meer dan 4000 vliegvelden (METAR en TAF).

De beschikbare stations zijn de gele en rode punten op de kaart.

Ga met uw muis naar het station om de naam te zien.

Klik dan om waarnemingen en weersverwachtingen te zien.

kaart wijzigen: klik op de groene knoppen met een zwart kruis om in te zoomen, op de groene knop met een streepje om uit te zoomen of op de groene pijlen voor aangrenzende kaarten.


METAR-TAF: